createdAt,value
2023-04-23T00:00:33.018Z,66.43
2023-04-23T00:03:20.268Z,62.92
2023-04-23T00:06:07.876Z,70.40
2023-04-23T00:08:59.645Z,69.07
2023-04-23T00:11:45.550Z,64.43
2023-04-23T00:14:31.511Z,66.03
2023-04-23T00:17:16.593Z,81.38
2023-04-23T00:20:02.108Z,85.15
2023-04-23T00:22:47.389Z,74.32
2023-04-23T00:25:32.860Z,77.05
2023-04-23T00:28:20.155Z,76.30
2023-04-23T00:31:07.650Z,87.05
2023-04-23T00:33:53.933Z,88.70
2023-04-23T00:36:39.299Z,81.57
2023-04-23T00:39:24.857Z,74.53
2023-04-23T00:42:12.493Z,70.43
2023-04-23T00:44:59.888Z,72.10
2023-04-23T00:47:46.423Z,63.47
2023-04-23T00:50:31.884Z,68.85
2023-04-23T00:53:17.754Z,77.47
2023-04-23T00:56:05.296Z,94.63
2023-04-23T00:58:52.167Z,85.65
2023-04-23T01:01:37.757Z,91.00
2023-04-23T01:04:24.563Z,73.18
2023-04-23T01:07:12.969Z,73.68
2023-04-23T01:09:59.072Z,78.32
2023-04-23T01:12:44.433Z,67.72
2023-04-23T01:15:30.138Z,64.30
2023-04-23T01:18:15.764Z,68.13
2023-04-23T01:21:01.900Z,64.60
2023-04-23T01:23:47.082Z,74.68
2023-04-23T01:26:33.423Z,68.85
2023-04-23T01:29:19.974Z,73.88
2023-04-23T01:32:07.258Z,83.50
2023-04-23T01:34:54.304Z,71.50
2023-04-23T01:37:40.861Z,70.85
2023-04-23T01:40:26.438Z,70.63
2023-04-23T01:43:11.818Z,70.07
2023-04-23T01:45:58.445Z,72.45
2023-04-23T01:48:44.074Z,71.28
2023-04-23T01:51:30.731Z,73.88
2023-04-23T01:54:16.674Z,81.55
2023-04-23T01:57:02.892Z,73.68
2023-04-23T01:59:48.047Z,83.78
2023-04-23T02:02:33.470Z,69.18
2023-04-23T02:05:20.344Z,72.65
2023-04-23T02:08:05.863Z,79.38
2023-04-23T02:10:51.541Z,76.22
2023-04-23T02:13:37.464Z,86.53
2023-04-23T02:16:24.542Z,78.00
2023-04-23T02:19:09.879Z,78.88
2023-04-23T02:21:55.257Z,73.05
2023-04-23T02:24:42.187Z,73.75
2023-04-23T02:27:28.378Z,86.15
2023-04-23T02:30:14.016Z,68.97
2023-04-23T02:32:59.116Z,68.60
2023-04-23T02:35:44.555Z,64.97
2023-04-23T02:38:29.870Z,62.45
2023-04-23T02:41:15.467Z,70.50
2023-04-23T02:44:01.189Z,74.30
2023-04-23T02:46:46.576Z,65.90
2023-04-23T02:49:31.986Z,73.78
2023-04-23T02:52:17.625Z,76.75
2023-04-23T02:55:03.914Z,73.38
2023-04-23T02:57:48.977Z,69.80
2023-04-23T03:00:34.449Z,79.18
2023-04-23T03:03:20.295Z,79.90
2023-04-23T03:06:06.769Z,68.25
2023-04-23T03:08:52.279Z,68.55
2023-04-23T03:11:38.033Z,76.95
2023-04-23T03:14:24.083Z,64.15
2023-04-23T03:17:09.893Z,58.95
2023-04-23T03:19:55.974Z,59.67
2023-04-23T03:22:41.800Z,58.22
2023-04-23T03:25:27.174Z,55.40
2023-04-23T03:28:12.555Z,53.45
2023-04-23T03:30:57.952Z,52.75
2023-04-23T03:33:43.417Z,51.78
2023-04-23T03:36:29.350Z,54.55
2023-04-23T03:39:15.664Z,47.97
2023-04-23T03:42:11.068Z,47.13
2023-04-23T03:44:57.620Z,47.00
2023-04-23T03:47:43.762Z,52.45
2023-04-23T03:50:29.862Z,45.90
2023-04-23T03:53:27.310Z,41.85
2023-04-23T03:56:31.816Z,40.95
2023-04-23T03:59:39.687Z,39.92
2023-04-23T04:02:25.145Z,38.72
2023-04-23T04:05:12.534Z,37.45
2023-04-23T04:07:58.035Z,38.45
2023-04-23T04:10:44.651Z,36.17
2023-04-23T04:13:29.977Z,36.63
2023-04-23T04:16:15.405Z,36.05
2023-04-23T04:19:01.578Z,34.45
2023-04-23T04:21:47.708Z,34.75
2023-04-23T04:24:33.222Z,35.55
2023-04-23T04:27:18.889Z,30.58
2023-04-23T04:30:05.552Z,31.00
2023-04-23T04:32:50.938Z,30.83
2023-04-23T04:35:36.926Z,32.00
2023-04-23T04:38:22.332Z,31.70
2023-04-23T04:41:07.864Z,29.17
2023-04-23T04:43:54.511Z,31.50
2023-04-23T04:46:40.674Z,30.70
2023-04-23T04:49:26.164Z,31.80
2023-04-23T04:52:11.901Z,32.10
2023-04-23T04:54:57.317Z,32.58
2023-04-23T04:57:42.893Z,32.53
2023-04-23T05:00:30.177Z,31.92
2023-04-23T05:03:15.682Z,31.15
2023-04-23T05:06:01.414Z,28.67
2023-04-23T05:08:49.779Z,32.00
2023-04-23T05:11:35.859Z,32.20
2023-04-23T05:14:21.268Z,33.35
2023-04-23T05:17:06.984Z,28.08
2023-04-23T05:19:52.105Z,30.33
2023-04-23T05:22:42.126Z,29.02
2023-04-23T05:25:27.855Z,30.27
2023-04-23T05:28:13.336Z,30.08
2023-04-23T05:30:58.843Z,28.05
2023-04-23T05:33:49.706Z,29.63
2023-04-23T05:36:36.449Z,28.02
2023-04-23T05:39:21.982Z,25.95
2023-04-23T05:42:07.225Z,25.85
2023-04-23T05:44:52.669Z,26.75
2023-04-23T05:47:38.382Z,26.40
2023-04-23T05:50:23.599Z,27.60
2023-04-23T05:53:09.109Z,25.92
2023-04-23T05:55:54.645Z,26.27
2023-04-23T05:58:40.094Z,25.45
2023-04-23T06:01:25.557Z,24.10
2023-04-23T06:04:11.263Z,21.70
2023-04-23T06:06:56.530Z,21.40
2023-04-23T06:09:42.397Z,25.38
2023-04-23T06:12:27.607Z,23.27
2023-04-23T06:15:13.068Z,21.83
2023-04-23T06:17:58.876Z,23.65
2023-04-23T06:20:45.058Z,20.83
2023-04-23T06:23:31.405Z,21.40
2023-04-23T06:26:16.616Z,20.92
2023-04-23T06:29:03.708Z,19.92
2023-04-23T06:31:56.711Z,18.00
2023-04-23T06:34:57.011Z,18.27
2023-04-23T06:37:45.250Z,17.40
2023-04-23T06:40:30.751Z,17.67
2023-04-23T06:43:16.482Z,16.75
2023-04-23T06:46:25.230Z,17.02
2023-04-23T06:49:12.232Z,16.52
2023-04-23T06:51:58.018Z,17.20
2023-04-23T06:54:44.036Z,15.48
2023-04-23T06:57:29.410Z,15.25
2023-04-23T07:00:15.450Z,14.88
2023-04-23T07:03:02.026Z,14.35
2023-04-23T07:05:47.351Z,14.60
2023-04-23T07:08:33.053Z,14.45
2023-04-23T07:11:18.536Z,12.77
2023-04-23T07:14:04.223Z,13.15
2023-04-23T07:16:49.589Z,12.05
2023-04-23T07:19:34.933Z,11.40
2023-04-23T07:22:20.600Z,11.65
2023-04-23T07:25:08.432Z,10.50
2023-04-23T07:27:56.904Z,11.13
2023-04-23T07:30:42.409Z,11.13
2023-04-23T07:33:27.939Z,9.90
2023-04-23T07:36:13.469Z,9.25
2023-04-23T07:38:59.036Z,9.52
2023-04-23T07:41:44.456Z,9.30
2023-04-23T07:44:29.989Z,9.30
2023-04-23T07:47:15.589Z,9.48
2023-04-23T07:50:01.138Z,8.45
2023-04-23T07:52:46.651Z,8.50
2023-04-23T07:55:32.054Z,7.70
2023-04-23T07:58:17.515Z,8.05
2023-04-23T08:01:03.190Z,10.18
2023-04-23T08:03:49.027Z,7.95
2023-04-23T08:06:35.538Z,8.43
2023-04-23T08:09:21.011Z,7.95
2023-04-23T08:12:06.676Z,8.60
2023-04-23T08:14:52.079Z,7.80
2023-04-23T08:17:41.230Z,7.07
2023-04-23T08:20:26.723Z,8.45
2023-04-23T08:23:12.216Z,8.85
2023-04-23T08:25:57.823Z,7.72
2023-04-23T08:28:43.199Z,7.93
2023-04-23T08:31:28.708Z,7.70
2023-04-23T08:34:15.321Z,8.50
2023-04-23T08:37:00.405Z,6.72
2023-04-23T08:39:46.122Z,8.10
2023-04-23T08:42:44.414Z,7.75
2023-04-23T08:45:30.870Z,7.07
2023-04-23T08:48:16.672Z,6.63
2023-04-23T08:51:04.522Z,5.88
2023-04-23T08:53:52.808Z,6.70
2023-04-23T08:56:40.088Z,5.95
2023-04-23T08:59:26.811Z,6.55
2023-04-23T09:02:12.196Z,8.55
2023-04-23T09:04:57.663Z,7.80
2023-04-23T09:07:43.603Z,6.47
2023-04-23T09:10:29.132Z,7.00
2023-04-23T09:13:14.686Z,8.20
2023-04-23T09:15:59.947Z,6.60
2023-04-23T09:18:45.314Z,6.82
2023-04-23T09:21:31.620Z,5.80
2023-04-23T09:24:17.862Z,5.55
2023-04-23T09:27:03.903Z,8.32
2023-04-23T09:29:53.037Z,8.32
2023-04-23T09:32:43.772Z,8.18
2023-04-23T09:35:29.705Z,7.07
2023-04-23T09:38:15.287Z,6.65
2023-04-23T09:41:21.424Z,6.00
2023-04-23T09:44:08.194Z,7.63
2023-04-23T09:46:53.802Z,8.25
2023-04-23T09:49:49.579Z,8.50
2023-04-23T09:52:38.939Z,5.88
2023-04-23T09:55:37.368Z,5.75
2023-04-23T09:58:27.541Z,5.25
2023-04-23T10:01:15.301Z,7.57
2023-04-23T10:04:00.792Z,5.53
2023-04-23T10:06:57.978Z,7.10
2023-04-23T10:09:52.205Z,9.77
2023-04-23T10:12:53.717Z,7.25
2023-04-23T10:15:40.296Z,10.20
2023-04-23T10:18:25.988Z,7.70
2023-04-23T10:21:14.143Z,8.50
2023-04-23T10:24:02.185Z,7.20
2023-04-23T10:26:49.886Z,6.20
2023-04-23T10:29:36.751Z,7.07
2023-04-23T10:32:22.111Z,7.38
2023-04-23T10:35:09.021Z,8.32
2023-04-23T10:37:54.762Z,7.03
2023-04-23T10:40:43.188Z,4.97
2023-04-23T10:43:28.597Z,5.95
2023-04-23T10:46:33.111Z,6.60
2023-04-23T10:49:18.568Z,5.85
2023-04-23T10:52:19.319Z,6.03
2023-04-23T10:55:16.162Z,5.88
2023-04-23T10:58:06.418Z,9.48
2023-04-23T11:00:52.177Z,3.92
2023-04-23T11:03:43.606Z,4.30
2023-04-23T11:06:48.226Z,4.43
2023-04-23T11:09:38.112Z,5.25
2023-04-23T11:12:29.916Z,6.90
2023-04-23T11:15:18.405Z,7.25
2023-04-23T11:18:04.814Z,7.30
2023-04-23T11:20:51.313Z,5.03
2023-04-23T11:23:37.043Z,4.50
2023-04-23T11:26:23.053Z,6.72
2023-04-23T11:29:08.465Z,4.10
2023-04-23T11:32:02.402Z,5.00
2023-04-23T11:34:50.483Z,6.07
2023-04-23T11:37:43.401Z,4.47
2023-04-23T11:40:30.928Z,4.03
2023-04-23T11:43:21.122Z,4.40
2023-04-23T11:46:06.709Z,5.35
2023-04-23T11:48:52.188Z,5.05
2023-04-23T11:51:43.078Z,4.35
2023-04-23T11:54:29.511Z,3.88
2023-04-23T11:57:14.794Z,5.70
2023-04-23T12:00:00.540Z,5.63
2023-04-23T12:03:03.479Z,5.95
2023-04-23T12:05:48.821Z,4.15
2023-04-23T12:08:40.385Z,4.45
2023-04-23T12:11:26.218Z,7.03
2023-04-23T12:14:13.442Z,4.70
2023-04-23T12:17:08.535Z,5.30
2023-04-23T12:19:54.125Z,3.65
2023-04-23T12:22:39.632Z,3.20
2023-04-23T12:25:25.776Z,3.95
2023-04-23T12:28:12.336Z,4.00
2023-04-23T12:31:02.278Z,4.03
2023-04-23T12:33:48.130Z,6.32
2023-04-23T12:36:35.603Z,4.05
2023-04-23T12:39:23.853Z,3.45
2023-04-23T12:42:10.458Z,4.43
2023-04-23T12:45:04.649Z,3.80
2023-04-23T12:47:50.064Z,3.22
2023-04-23T12:50:35.425Z,3.15
2023-04-23T12:53:21.116Z,3.88
2023-04-23T12:56:06.497Z,2.60
2023-04-23T12:58:52.674Z,3.47
2023-04-23T13:01:38.161Z,3.22
2023-04-23T13:04:23.401Z,3.03
2023-04-23T13:07:09.479Z,4.57
2023-04-23T13:09:55.036Z,4.15
2023-04-23T13:12:41.305Z,3.30
2023-04-23T13:15:27.106Z,2.67
2023-04-23T13:18:12.860Z,3.85
2023-04-23T13:20:58.445Z,3.40
2023-04-23T13:23:43.756Z,3.60
2023-04-23T13:26:31.933Z,5.63
2023-04-23T13:29:17.403Z,8.75
2023-04-23T13:32:03.211Z,3.05
2023-04-23T13:34:49.139Z,2.67
2023-04-23T13:37:34.190Z,2.75
2023-04-23T13:40:19.537Z,3.05
2023-04-23T13:43:04.811Z,1.60
2023-04-23T13:45:50.469Z,2.58
2023-04-23T13:48:35.763Z,3.58
2023-04-23T13:51:33.884Z,4.75
2023-04-23T13:54:20.793Z,4.40
2023-04-23T13:57:06.482Z,4.45
2023-04-23T13:59:51.812Z,2.58
2023-04-23T14:02:37.238Z,2.42
2023-04-23T14:05:22.788Z,3.63
2023-04-23T14:08:08.147Z,3.92
2023-04-23T14:10:53.550Z,2.78
2023-04-23T14:13:39.081Z,4.78
2023-04-23T14:16:24.711Z,3.08
2023-04-23T14:19:09.970Z,2.85
2023-04-23T14:21:55.429Z,4.10
2023-04-23T14:24:46.156Z,4.25
2023-04-23T14:27:39.421Z,5.03
2023-04-23T14:30:27.700Z,3.33
2023-04-23T14:33:12.798Z,3.38
2023-04-23T14:35:58.895Z,2.45
2023-04-23T14:38:44.408Z,2.50
2023-04-23T14:41:29.929Z,2.70
2023-04-23T14:44:15.288Z,2.95
2023-04-23T14:47:00.909Z,2.13
2023-04-23T14:49:46.185Z,3.05
2023-04-23T14:52:32.237Z,2.33
2023-04-23T14:55:17.409Z,4.57
2023-04-23T14:58:02.864Z,4.45
2023-04-23T15:00:49.505Z,5.40
2023-04-23T15:03:36.448Z,5.68
2023-04-23T15:06:22.450Z,4.53
2023-04-23T15:09:07.488Z,4.65
2023-04-23T15:11:53.477Z,8.25
2023-04-23T15:14:38.965Z,6.93
2023-04-23T15:17:24.346Z,5.55
2023-04-23T15:20:11.629Z,5.22
2023-04-23T15:22:57.421Z,4.03
2023-04-23T15:25:42.823Z,6.20
2023-04-23T15:28:28.295Z,3.47
2023-04-23T15:31:14.164Z,3.30
2023-04-23T15:33:59.338Z,4.05
2023-04-23T15:36:44.520Z,5.65
2023-04-23T15:39:30.127Z,7.38
2023-04-23T15:42:18.056Z,7.80
2023-04-23T15:45:03.701Z,5.85
2023-04-23T15:47:51.010Z,4.85
2023-04-23T15:50:36.733Z,5.55
2023-04-23T15:53:22.934Z,4.63
2023-04-23T15:56:08.336Z,5.00
2023-04-23T15:58:53.687Z,4.53
2023-04-23T16:01:39.507Z,3.67
2023-04-23T16:04:24.932Z,5.57
2023-04-23T16:07:10.854Z,3.28
2023-04-23T16:09:56.287Z,3.00
2023-04-23T16:12:45.777Z,4.60
2023-04-23T16:15:31.129Z,3.17
2023-04-23T16:18:16.609Z,3.10
2023-04-23T16:21:02.338Z,3.03
2023-04-23T16:23:47.746Z,3.47
2023-04-23T16:26:33.674Z,4.28
2023-04-23T16:29:22.751Z,6.03
2023-04-23T16:32:08.496Z,4.93
2023-04-23T16:34:53.828Z,4.10
2023-04-23T16:37:39.570Z,6.80
2023-04-23T16:40:25.322Z,4.28
2023-04-23T16:43:11.506Z,3.58
2023-04-23T16:45:57.909Z,2.45
2023-04-23T16:48:45.196Z,2.63
2023-04-23T16:51:30.621Z,2.85
2023-04-23T16:54:15.956Z,2.78
2023-04-23T16:57:01.591Z,2.80
2023-04-23T16:59:46.792Z,2.60
2023-04-23T17:02:32.641Z,3.53
2023-04-23T17:05:20.966Z,3.60
2023-04-23T17:08:06.101Z,3.45
2023-04-23T17:10:52.392Z,2.00
2023-04-23T17:13:37.744Z,2.65
2023-04-23T17:16:26.631Z,3.65
2023-04-23T17:19:12.662Z,4.47
2023-04-23T17:21:58.670Z,4.18
2023-04-23T17:24:44.034Z,2.88
2023-04-23T17:27:29.782Z,5.18
2023-04-23T17:30:15.304Z,4.65
2023-04-23T17:33:00.976Z,5.50
2023-04-23T17:35:49.023Z,4.53
2023-04-23T17:38:34.391Z,4.93
2023-04-23T17:41:19.523Z,2.97
2023-04-23T17:44:05.000Z,3.08
2023-04-23T17:46:52.199Z,3.53
2023-04-23T17:49:37.464Z,4.15
2023-04-23T17:52:22.898Z,4.28
2023-04-23T17:55:08.919Z,3.55
2023-04-23T17:57:54.059Z,3.25
2023-04-23T18:00:44.090Z,2.95
2023-04-23T18:03:30.506Z,2.35
2023-04-23T18:06:16.226Z,2.78
2023-04-23T18:09:01.972Z,2.50
2023-04-23T18:11:47.581Z,2.60
2023-04-23T18:14:33.194Z,3.13
2023-04-23T18:17:19.009Z,4.03
2023-04-23T18:20:06.465Z,5.35
2023-04-23T18:22:53.605Z,2.53
2023-04-23T18:25:38.998Z,4.60
2023-04-23T18:28:24.569Z,2.40
2023-04-23T18:31:10.609Z,3.35
2023-04-23T18:34:02.278Z,4.53
2023-04-23T18:36:50.061Z,3.25
2023-04-23T18:39:35.758Z,3.05
2023-04-23T18:42:21.452Z,2.95
2023-04-23T18:45:08.074Z,3.25
2023-04-23T18:47:59.317Z,4.10
2023-04-23T18:50:50.027Z,3.10
2023-04-23T18:53:37.167Z,4.40
2023-04-23T18:56:23.054Z,4.65
2023-04-23T18:59:08.138Z,4.18
2023-04-23T19:01:53.936Z,3.70
2023-04-23T19:04:39.453Z,2.95
2023-04-23T19:07:24.710Z,4.32
2023-04-23T19:10:11.450Z,3.42
2023-04-23T19:12:57.027Z,3.28
2023-04-23T19:15:42.783Z,3.47
2023-04-23T19:18:28.634Z,3.70
2023-04-23T19:21:14.037Z,5.05
2023-04-23T19:23:59.827Z,3.28
2023-04-23T19:26:45.787Z,2.50
2023-04-23T19:29:31.431Z,2.80
2023-04-23T19:32:17.298Z,5.85
2023-04-23T19:35:05.508Z,4.45
2023-04-23T19:37:50.986Z,3.25
2023-04-23T19:40:36.701Z,5.05
2023-04-23T19:43:22.316Z,3.78
2023-04-23T19:46:08.117Z,3.83
2023-04-23T19:48:54.937Z,5.15
2023-04-23T19:51:40.368Z,4.13
2023-04-23T19:54:26.270Z,4.03
2023-04-23T19:57:11.813Z,3.85
2023-04-23T19:59:57.410Z,5.40
2023-04-23T20:02:43.878Z,3.40
2023-04-23T20:05:29.831Z,4.25
2023-04-23T20:08:15.458Z,3.30
2023-04-23T20:11:01.145Z,3.92
2023-04-23T20:13:46.646Z,4.53
2023-04-23T20:16:32.763Z,4.93
2023-04-23T20:19:18.800Z,4.40
2023-04-23T20:22:04.206Z,3.95
2023-04-23T20:24:49.534Z,4.68
2023-04-23T20:27:35.340Z,4.32
2023-04-23T20:30:20.669Z,4.97
2023-04-23T20:33:06.992Z,4.85
2023-04-23T20:35:53.164Z,6.72
2023-04-23T20:38:38.966Z,3.97
2023-04-23T20:41:31.248Z,4.93
2023-04-23T20:44:16.738Z,4.38
2023-04-23T20:47:05.695Z,4.97
2023-04-23T20:49:50.877Z,5.45
2023-04-23T20:52:36.557Z,5.38
2023-04-23T20:55:22.344Z,6.18
2023-04-23T20:58:07.581Z,6.90
2023-04-23T21:00:52.910Z,8.10
2023-04-23T21:03:39.544Z,8.25
2023-04-23T21:06:24.923Z,8.55
2023-04-23T21:09:11.254Z,6.95
2023-04-23T21:11:57.252Z,5.72
2023-04-23T21:14:42.632Z,7.95
2023-04-23T21:17:28.082Z,8.13
2023-04-23T21:20:13.695Z,7.32
2023-04-23T21:22:59.453Z,8.80
2023-04-23T21:25:44.718Z,5.45
2023-04-23T21:28:31.393Z,5.70
2023-04-23T21:31:29.708Z,6.15
2023-04-23T21:34:15.788Z,6.65
2023-04-23T21:37:01.169Z,6.43
2023-04-23T21:39:46.701Z,6.35
2023-04-23T21:42:32.260Z,8.93
2023-04-23T21:45:17.757Z,4.85
2023-04-23T21:48:03.840Z,5.28
2023-04-23T21:50:49.894Z,4.88
2023-04-23T21:53:35.219Z,6.18
2023-04-23T21:56:21.475Z,5.28
2023-04-23T21:59:06.946Z,4.72
2023-04-23T22:01:52.386Z,5.20
2023-04-23T22:04:37.985Z,4.82
2023-04-23T22:07:23.582Z,4.80
2023-04-23T22:10:14.803Z,5.38
2023-04-23T22:13:00.252Z,3.80
2023-04-23T22:15:46.109Z,4.05
2023-04-23T22:18:32.541Z,3.95
2023-04-23T22:21:18.262Z,3.78
2023-04-23T22:24:03.894Z,3.30
2023-04-23T22:26:49.501Z,2.92
2023-04-23T22:29:34.846Z,2.92
2023-04-23T22:32:20.395Z,2.90
2023-04-23T22:35:07.135Z,2.60
2023-04-23T22:37:52.448Z,2.67
2023-04-23T22:40:37.832Z,2.38
2023-04-23T22:43:23.229Z,2.45
2023-04-23T22:46:08.753Z,2.25
2023-04-23T22:48:54.648Z,2.35
2023-04-23T22:51:39.862Z,3.20
2023-04-23T22:54:25.706Z,2.42
2023-04-23T22:57:11.652Z,2.60
2023-04-23T22:59:56.806Z,2.20
2023-04-23T23:02:42.497Z,2.33
2023-04-23T23:05:27.894Z,2.30
2023-04-23T23:08:13.327Z,2.10
2023-04-23T23:10:58.846Z,2.00
2023-04-23T23:13:45.279Z,2.40
2023-04-23T23:16:30.932Z,2.22
2023-04-23T23:19:16.262Z,2.45
2023-04-23T23:22:01.738Z,2.42
2023-04-23T23:24:47.279Z,2.78
2023-04-23T23:27:32.810Z,2.88
2023-04-23T23:30:18.848Z,2.83
2023-04-23T23:33:04.395Z,3.42
2023-04-23T23:35:49.735Z,3.08
2023-04-23T23:38:35.450Z,3.03
2023-04-23T23:41:21.002Z,3.97
2023-04-23T23:44:06.431Z,3.65
2023-04-23T23:46:52.282Z,3.50
2023-04-23T23:49:37.724Z,3.45
2023-04-23T23:52:23.381Z,3.20
2023-04-23T23:55:10.335Z,4.28
2023-04-23T23:57:55.816Z,4.68
